createdAt,value
2023-03-21T00:02:40.661Z,9.70
2023-03-21T00:05:31.615Z,9.70
2023-03-21T00:08:19.392Z,9.60
2023-03-21T00:11:08.176Z,9.60
2023-03-21T00:14:02.542Z,9.40
2023-03-21T00:16:50.840Z,9.40
2023-03-21T00:19:41.595Z,9.30
2023-03-21T00:22:29.637Z,9.30
2023-03-21T00:25:17.457Z,9.20
2023-03-21T00:28:08.466Z,9.10
2023-03-21T00:31:00.763Z,10.00
2023-03-21T00:33:48.696Z,9.10
2023-03-21T00:36:36.136Z,9.90
2023-03-21T00:39:27.702Z,9.00
2023-03-21T00:42:15.853Z,9.00
2023-03-21T00:45:10.644Z,9.00
2023-03-21T00:48:00.712Z,9.10
2023-03-21T00:50:49.737Z,9.00
2023-03-21T00:53:42.952Z,8.90
2023-03-21T00:56:30.301Z,7.00
2023-03-21T00:59:18.067Z,9.40
2023-03-21T01:02:07.450Z,9.00
2023-03-21T01:05:00.602Z,9.30
2023-03-21T01:07:53.533Z,9.00
2023-03-21T01:10:42.874Z,9.00
2023-03-21T01:13:36.382Z,9.00
2023-03-21T01:16:24.258Z,11.70
2023-03-21T01:19:24.970Z,10.50
2023-03-21T01:22:15.521Z,9.00
2023-03-21T01:25:19.583Z,9.00
2023-03-21T01:28:09.741Z,9.00
2023-03-21T01:30:58.123Z,9.50
2023-03-21T01:33:57.771Z,9.10
2023-03-21T01:36:52.381Z,9.30
2023-03-21T01:39:43.042Z,9.00
2023-03-21T01:42:31.164Z,9.00
2023-03-21T01:45:33.908Z,9.00
2023-03-21T01:48:22.771Z,9.00
2023-03-21T01:51:17.270Z,9.00
2023-03-21T01:54:19.028Z,9.00
2023-03-21T01:57:10.989Z,10.80
2023-03-21T02:00:02.684Z,9.00
2023-03-21T02:03:16.842Z,9.00
2023-03-21T02:06:31.908Z,9.00
2023-03-21T02:09:30.436Z,9.00
2023-03-21T02:12:20.080Z,9.10
2023-03-21T02:15:09.209Z,9.30
2023-03-21T02:18:35.015Z,9.50
2023-03-21T02:21:55.762Z,9.10
2023-03-21T02:25:06.192Z,9.20
2023-03-21T02:28:01.943Z,9.30
2023-03-21T02:31:01.955Z,9.20
2023-03-21T02:34:02.522Z,9.40
2023-03-21T02:37:01.395Z,9.20
2023-03-21T02:39:55.945Z,9.30
2023-03-21T02:43:00.036Z,9.30
2023-03-21T02:45:54.850Z,9.40
2023-03-21T02:48:50.861Z,9.70
2023-03-21T02:51:41.602Z,9.50
2023-03-21T02:54:47.338Z,9.70
2023-03-21T02:57:43.253Z,9.60
2023-03-21T03:00:34.991Z,9.60
2023-03-21T03:03:33.985Z,9.50
2023-03-21T03:06:25.810Z,9.70
2023-03-21T03:09:21.985Z,9.70
2023-03-21T03:12:17.705Z,9.70
2023-03-21T03:15:13.831Z,9.70
2023-03-21T03:18:07.826Z,7.80
2023-03-21T03:21:02.123Z,9.80
2023-03-21T03:23:52.207Z,9.70
2023-03-21T03:26:41.052Z,9.80
2023-03-21T03:29:30.935Z,9.90
2023-03-21T03:32:19.958Z,10.00
2023-03-21T03:35:09.497Z,10.00
2023-03-21T03:37:58.399Z,10.00
2023-03-21T03:40:47.822Z,10.00
2023-03-21T03:43:57.904Z,10.00
2023-03-21T03:46:56.657Z,9.90
2023-03-21T03:49:47.827Z,9.90
2023-03-21T03:52:40.047Z,9.90
2023-03-21T03:55:35.713Z,9.90
2023-03-21T03:58:44.926Z,9.80
2023-03-21T04:01:37.904Z,9.90
2023-03-21T04:04:29.075Z,9.70
2023-03-21T04:07:17.678Z,9.80
2023-03-21T04:10:05.680Z,9.80
2023-03-21T04:13:00.433Z,10.80
2023-03-21T04:16:05.110Z,9.80
2023-03-21T04:18:53.224Z,10.10
2023-03-21T04:21:44.815Z,9.90
2023-03-21T04:24:34.058Z,9.80
2023-03-21T04:27:25.820Z,9.80
2023-03-21T04:30:28.408Z,10.50
2023-03-21T04:33:27.084Z,10.50
2023-03-21T04:36:29.030Z,9.90
2023-03-21T04:39:25.196Z,10.00
2023-03-21T04:42:14.641Z,9.70
2023-03-21T04:45:03.823Z,9.80
2023-03-21T04:47:51.284Z,10.40
2023-03-21T04:50:39.589Z,9.80
2023-03-21T04:53:28.954Z,9.90
2023-03-21T04:56:18.035Z,9.80
2023-03-21T04:59:08.132Z,9.90
2023-03-21T05:01:57.143Z,9.80
2023-03-21T05:04:44.811Z,10.00
2023-03-21T05:07:33.003Z,9.90
2023-03-21T05:10:20.696Z,9.90
2023-03-21T05:13:10.045Z,9.80
2023-03-21T05:15:57.624Z,11.80
2023-03-21T05:18:45.510Z,9.80
2023-03-21T05:21:42.178Z,9.90
2023-03-21T05:24:50.492Z,9.90
2023-03-21T05:28:02.343Z,9.80
2023-03-21T05:30:53.144Z,11.90
2023-03-21T05:33:42.564Z,9.90
2023-03-21T05:36:34.281Z,10.00
2023-03-21T05:39:23.487Z,10.10
2023-03-21T05:42:20.946Z,10.00
2023-03-21T05:45:10.425Z,9.90
2023-03-21T05:48:01.995Z,9.80
2023-03-21T05:50:54.756Z,10.90
2023-03-21T05:53:43.662Z,9.70
2023-03-21T05:56:32.430Z,11.20
2023-03-21T05:59:24.472Z,9.60
2023-03-21T06:02:15.472Z,9.60
2023-03-21T06:05:06.529Z,9.50
2023-03-21T06:07:54.630Z,9.90
2023-03-21T06:10:42.442Z,9.60
2023-03-21T06:13:31.500Z,9.60
2023-03-21T06:16:19.118Z,9.60
2023-03-21T06:19:07.045Z,9.60
2023-03-21T06:22:16.387Z,9.60
2023-03-21T06:25:04.265Z,9.60
2023-03-21T06:27:52.251Z,9.60
2023-03-21T06:30:43.167Z,10.00
2023-03-21T06:33:35.768Z,9.60
2023-03-21T06:36:23.553Z,9.60
2023-03-21T06:39:13.816Z,9.60
2023-03-21T06:42:02.192Z,9.70
2023-03-21T06:44:50.223Z,9.70
2023-03-21T06:47:38.497Z,9.70
2023-03-21T06:50:33.037Z,9.80
2023-03-21T06:53:24.502Z,9.80
2023-03-21T06:56:38.079Z,9.70
2023-03-21T06:59:31.979Z,7.40
2023-03-21T07:02:26.681Z,9.60
2023-03-21T07:05:23.193Z,9.80
2023-03-21T07:08:14.980Z,9.40
2023-03-21T07:14:28.884Z,9.40
2023-03-21T07:17:20.611Z,9.50
2023-03-21T07:20:38.450Z,9.60
2023-03-21T07:23:27.198Z,9.50
2023-03-21T07:26:35.240Z,9.50
2023-03-21T07:29:25.728Z,9.40
2023-03-21T07:32:13.574Z,9.40
2023-03-21T07:35:12.006Z,9.40
2023-03-21T07:37:59.638Z,9.60
2023-03-21T07:40:47.897Z,9.50
2023-03-21T07:43:37.133Z,9.50
2023-03-21T07:46:31.277Z,7.20
2023-03-21T07:49:19.687Z,9.50
2023-03-21T07:52:08.026Z,9.50
2023-03-21T07:54:58.467Z,9.70
2023-03-21T07:57:45.781Z,9.60
2023-03-21T08:00:34.516Z,9.80
2023-03-21T08:03:29.425Z,10.00
2023-03-21T08:06:17.054Z,10.10
2023-03-21T08:09:04.798Z,10.20
2023-03-21T08:11:54.971Z,10.40
2023-03-21T08:14:43.539Z,11.30
2023-03-21T08:17:31.848Z,10.60
2023-03-21T08:20:22.534Z,10.50
2023-03-21T08:23:14.049Z,10.80
2023-03-21T08:26:02.434Z,9.40
2023-03-21T08:28:52.730Z,10.60
2023-03-21T08:31:41.080Z,11.60
2023-03-21T08:34:29.471Z,10.60
2023-03-21T08:37:20.316Z,10.60
2023-03-21T08:40:12.189Z,10.60
2023-03-21T08:43:00.091Z,10.60
2023-03-21T08:45:48.927Z,10.60
2023-03-21T08:48:39.000Z,10.70
2023-03-21T08:51:26.673Z,10.70
2023-03-21T08:54:20.068Z,10.90
2023-03-21T08:57:11.278Z,8.60
2023-03-21T09:00:00.417Z,10.80
2023-03-21T09:02:49.651Z,10.90
2023-03-21T09:05:38.003Z,13.20
2023-03-21T09:08:25.962Z,13.20
2023-03-21T09:11:13.701Z,11.10
2023-03-21T09:14:03.645Z,11.00
2023-03-21T09:16:52.417Z,11.10
2023-03-21T09:19:41.093Z,11.20
2023-03-21T09:22:28.739Z,13.20
2023-03-21T09:25:17.372Z,11.50
2023-03-21T09:28:08.246Z,11.70
2023-03-21T09:31:00.696Z,11.80
2023-03-21T09:33:48.818Z,11.90
2023-03-21T09:36:38.325Z,12.40
2023-03-21T09:39:27.344Z,12.20
2023-03-21T09:42:21.159Z,12.30
2023-03-21T09:45:13.426Z,12.00
2023-03-21T09:48:02.898Z,12.30
2023-03-21T09:50:51.279Z,12.30
2023-03-21T09:53:40.394Z,12.40
2023-03-21T09:56:28.500Z,12.40
2023-03-21T09:59:21.268Z,12.80
2023-03-21T10:02:22.998Z,12.40
2023-03-21T10:05:15.892Z,12.30
2023-03-21T10:08:05.782Z,12.40
2023-03-21T10:10:56.311Z,12.30
2023-03-21T10:13:45.749Z,13.50
2023-03-21T10:16:34.025Z,12.80
2023-03-21T10:19:21.859Z,12.90
2023-03-21T10:22:11.328Z,13.10
2023-03-21T10:24:58.931Z,13.20
2023-03-21T10:27:47.573Z,13.20
2023-03-21T10:30:42.437Z,13.90
2023-03-21T10:33:33.579Z,13.20
2023-03-21T10:36:22.971Z,13.20
2023-03-21T10:39:17.492Z,13.40
2023-03-21T10:42:05.687Z,15.20
2023-03-21T10:44:54.319Z,13.50
2023-03-21T10:47:42.320Z,13.60
2023-03-21T10:50:31.427Z,13.70
2023-03-21T10:53:21.774Z,13.80
2023-03-21T10:56:12.549Z,13.80
2023-03-21T10:59:01.608Z,15.10
2023-03-21T11:01:51.721Z,14.10
2023-03-21T11:04:39.764Z,14.10
2023-03-21T11:07:31.379Z,14.30
2023-03-21T11:10:29.491Z,14.40
2023-03-21T11:13:21.055Z,14.40
2023-03-21T11:16:11.394Z,14.40
2023-03-21T11:19:04.401Z,14.10
2023-03-21T11:21:53.110Z,14.70
2023-03-21T11:24:40.954Z,14.60
2023-03-21T11:27:31.635Z,14.80
2023-03-21T11:30:23.742Z,15.20
2023-03-21T11:33:13.230Z,15.60
2023-03-21T11:36:01.724Z,15.30
2023-03-21T11:38:51.126Z,15.20
2023-03-21T11:41:41.383Z,15.10
2023-03-21T11:44:31.011Z,14.80
2023-03-21T11:47:24.503Z,14.90
2023-03-21T11:50:18.071Z,15.20
2023-03-21T11:53:26.769Z,15.20
2023-03-21T11:56:21.589Z,15.20
2023-03-21T11:59:16.187Z,15.10
2023-03-21T12:02:10.665Z,15.30
2023-03-21T12:05:04.640Z,14.70
2023-03-21T12:07:58.855Z,15.00
2023-03-21T12:10:50.035Z,14.80
2023-03-21T12:13:45.199Z,15.20
2023-03-21T12:16:43.649Z,15.50
2023-03-21T12:19:41.935Z,15.50
2023-03-21T12:22:36.973Z,17.90
2023-03-21T12:25:28.016Z,15.80
2023-03-21T12:28:31.953Z,16.00
2023-03-21T12:31:25.912Z,17.80
2023-03-21T12:34:21.457Z,16.20
2023-03-21T12:37:17.347Z,16.90
2023-03-21T12:40:14.177Z,16.10
2023-03-21T12:43:09.012Z,15.80
2023-03-21T12:46:01.961Z,15.80
2023-03-21T12:48:52.590Z,15.30
2023-03-21T12:51:43.303Z,15.50
2023-03-21T12:54:33.231Z,17.80
2023-03-21T12:57:38.307Z,18.90
2023-03-21T13:00:29.850Z,17.40
2023-03-21T13:03:27.651Z,17.80
2023-03-21T13:06:23.832Z,17.30
2023-03-21T13:09:21.278Z,16.60
2023-03-21T13:12:20.770Z,16.30
2023-03-21T13:15:23.954Z,16.20
2023-03-21T13:18:16.086Z,15.90
2023-03-21T13:21:06.994Z,17.40
2023-03-21T13:24:01.907Z,15.80
2023-03-21T13:26:51.303Z,16.50
2023-03-21T13:29:46.327Z,16.10
2023-03-21T13:32:39.544Z,16.00
2023-03-21T13:35:34.863Z,17.30
2023-03-21T13:38:24.153Z,16.20
2023-03-21T13:41:14.495Z,16.40
2023-03-21T13:44:16.986Z,16.50
2023-03-21T13:47:05.924Z,17.80
2023-03-21T13:50:08.831Z,16.40
2023-03-21T13:53:20.984Z,17.70
2023-03-21T13:56:27.849Z,19.40
2023-03-21T13:59:20.849Z,17.90
2023-03-21T14:02:23.685Z,17.20
2023-03-21T14:05:20.261Z,17.00
2023-03-21T14:08:19.322Z,17.00
2023-03-21T14:11:14.708Z,16.60
2023-03-21T14:14:06.146Z,16.50
2023-03-21T14:16:56.110Z,16.60
2023-03-21T14:19:43.505Z,16.20
2023-03-21T14:22:35.469Z,16.10
2023-03-21T14:25:37.265Z,15.90
2023-03-21T14:28:33.233Z,15.80
2023-03-21T14:31:21.199Z,16.00
2023-03-21T14:34:12.792Z,17.10
2023-03-21T14:37:03.784Z,19.40
2023-03-21T14:40:00.312Z,17.70
2023-03-21T14:42:59.854Z,17.20
2023-03-21T14:45:49.177Z,15.20
2023-03-21T14:48:36.954Z,16.10
2023-03-21T14:51:26.196Z,15.60
2023-03-21T14:54:17.750Z,15.30
2023-03-21T14:57:07.049Z,15.10
2023-03-21T14:59:55.752Z,14.80
2023-03-21T15:02:44.970Z,14.70
2023-03-21T15:05:37.556Z,14.40
2023-03-21T15:08:27.698Z,14.40
2023-03-21T15:11:15.326Z,14.40
2023-03-21T15:14:04.147Z,14.30
2023-03-21T15:16:52.330Z,14.80
2023-03-21T15:19:40.572Z,14.00
2023-03-21T15:22:33.388Z,13.90
2023-03-21T15:25:24.241Z,13.90
2023-03-21T15:28:15.785Z,14.20
2023-03-21T15:31:05.491Z,13.90
2023-03-21T15:33:56.630Z,14.00
2023-03-21T15:36:45.512Z,13.90
2023-03-21T15:39:34.044Z,13.80
2023-03-21T15:42:27.613Z,11.70
2023-03-21T15:45:21.437Z,16.10
2023-03-21T15:48:10.964Z,11.40
2023-03-21T15:51:03.059Z,13.60
2023-03-21T15:53:54.292Z,13.50
2023-03-21T15:56:46.645Z,13.40
2023-03-21T15:59:38.880Z,15.00
2023-03-21T16:02:31.542Z,13.20
2023-03-21T16:05:26.495Z,13.10
2023-03-21T16:08:21.435Z,13.10
2023-03-21T16:11:10.723Z,13.20
2023-03-21T16:13:59.566Z,13.20
2023-03-21T16:16:49.189Z,13.20
2023-03-21T16:19:37.986Z,13.10
2023-03-21T16:22:26.917Z,14.20
2023-03-21T16:25:14.888Z,12.80
2023-03-21T16:28:05.639Z,12.90
2023-03-21T16:30:59.309Z,12.90
2023-03-21T16:33:51.541Z,12.90
2023-03-21T16:36:40.440Z,12.80
2023-03-21T16:39:28.470Z,14.10
2023-03-21T16:42:17.295Z,12.80
2023-03-21T16:45:08.593Z,13.00
2023-03-21T16:48:03.732Z,12.80
2023-03-21T16:50:53.190Z,13.20
2023-03-21T16:53:41.425Z,13.20
2023-03-21T16:56:31.290Z,13.10
2023-03-21T16:59:19.255Z,13.10
2023-03-21T17:02:13.062Z,15.20
2023-03-21T17:05:03.737Z,15.30
2023-03-21T17:07:56.036Z,13.10
2023-03-21T17:10:43.848Z,12.80
2023-03-21T17:13:34.836Z,12.70
2023-03-21T17:16:27.153Z,12.70
2023-03-21T17:19:15.489Z,12.60
2023-03-21T17:22:03.072Z,12.60
2023-03-21T17:24:52.479Z,12.70
2023-03-21T17:27:40.116Z,13.30
2023-03-21T17:30:28.621Z,12.50
2023-03-21T17:33:16.304Z,12.40
2023-03-21T17:36:03.813Z,12.30
2023-03-21T17:38:53.012Z,12.30
2023-03-21T17:41:42.012Z,12.30
2023-03-21T17:44:29.868Z,12.30
2023-03-21T17:47:17.622Z,12.60
2023-03-21T17:50:06.264Z,12.40
2023-03-21T17:52:56.646Z,12.50
2023-03-21T17:55:44.820Z,12.30
2023-03-21T17:58:34.028Z,12.20
2023-03-21T18:01:23.391Z,12.20
2023-03-21T18:04:11.210Z,12.20
2023-03-21T18:07:01.088Z,13.00
2023-03-21T18:09:49.378Z,12.40
2023-03-21T18:12:37.328Z,14.50
2023-03-21T18:15:30.140Z,12.10
2023-03-21T18:18:17.765Z,13.10
2023-03-21T18:21:06.058Z,11.90
2023-03-21T18:23:53.859Z,11.90
2023-03-21T18:26:41.798Z,11.80
2023-03-21T18:32:40.563Z,11.80
2023-03-21T18:35:28.048Z,11.80
2023-03-21T18:38:16.231Z,11.70
2023-03-21T18:41:03.841Z,11.70
2023-03-21T18:44:05.682Z,11.70
2023-03-21T18:46:59.670Z,11.60
2023-03-21T18:50:12.517Z,11.90
2023-03-21T18:52:58.412Z,11.80
2023-03-21T18:55:48.206Z,11.80
2023-03-21T18:58:39.973Z,11.90
2023-03-21T19:01:27.550Z,11.90
2023-03-21T19:04:23.874Z,12.00
2023-03-21T19:07:14.385Z,12.50
2023-03-21T19:10:16.954Z,13.80
2023-03-21T19:13:07.250Z,12.00
2023-03-21T19:15:56.233Z,11.90
2023-03-21T19:18:59.397Z,11.90
2023-03-21T19:21:48.013Z,12.00
2023-03-21T19:24:37.276Z,12.00
2023-03-21T19:27:24.711Z,12.00
2023-03-21T19:30:15.643Z,12.10
2023-03-21T19:33:03.300Z,13.40
2023-03-21T19:36:10.744Z,12.10
2023-03-21T19:38:59.723Z,12.10
2023-03-21T19:41:48.519Z,12.20
2023-03-21T19:44:36.857Z,13.50
2023-03-21T19:47:24.495Z,12.20
2023-03-21T19:50:49.293Z,12.10
2023-03-21T19:53:21.161Z,12.10
2023-03-21T19:56:21.190Z,12.20
2023-03-21T19:59:11.912Z,13.10
2023-03-21T20:02:17.892Z,12.20
2023-03-21T20:05:08.675Z,12.30
2023-03-21T20:07:57.374Z,12.20
2023-03-21T20:10:46.573Z,12.40
2023-03-21T20:13:34.235Z,12.60
2023-03-21T20:16:23.239Z,12.30
2023-03-21T20:19:13.510Z,12.30
2023-03-21T20:22:02.883Z,12.40
2023-03-21T20:24:50.295Z,12.30
2023-03-21T20:27:39.233Z,12.30
2023-03-21T20:30:30.776Z,12.20
2023-03-21T20:33:19.654Z,12.20
2023-03-21T20:39:15.625Z,12.30
2023-03-21T20:42:03.661Z,12.30
2023-03-21T20:44:58.659Z,12.60
2023-03-21T20:47:46.816Z,12.00
2023-03-21T20:50:39.279Z,12.20
2023-03-21T20:53:28.110Z,12.00
2023-03-21T20:56:15.982Z,11.90
2023-03-21T20:59:23.061Z,12.30
2023-03-21T21:02:18.599Z,14.80
2023-03-21T21:08:20.044Z,11.70
2023-03-21T21:11:58.809Z,11.90
2023-03-21T21:14:22.045Z,11.40
2023-03-21T21:17:28.320Z,11.40
2023-03-21T21:20:20.613Z,11.20
2023-03-21T21:23:09.618Z,11.10
2023-03-21T21:25:59.232Z,11.10
2023-03-21T21:28:47.922Z,11.10
2023-03-21T21:31:35.562Z,11.10
2023-03-21T21:34:23.849Z,11.20
2023-03-21T21:37:11.691Z,11.10
2023-03-21T21:39:59.034Z,13.50
2023-03-21T21:42:48.323Z,12.80
2023-03-21T21:45:36.922Z,10.90
2023-03-21T21:48:27.563Z,10.80
2023-03-21T21:51:17.370Z,10.80
2023-03-21T21:54:04.952Z,12.80
2023-03-21T21:56:54.304Z,10.90
2023-03-21T21:59:43.608Z,10.90
2023-03-21T22:02:31.659Z,11.00
2023-03-21T22:05:19.662Z,11.00
2023-03-21T22:08:10.507Z,11.00
2023-03-21T22:10:57.972Z,11.20
2023-03-21T22:13:45.358Z,11.00
2023-03-21T22:16:34.600Z,11.10
2023-03-21T22:19:22.026Z,11.00
2023-03-21T22:22:09.785Z,11.00
2023-03-21T22:24:57.597Z,10.90
2023-03-21T22:27:46.066Z,11.00
2023-03-21T22:30:33.511Z,10.90
2023-03-21T22:33:23.571Z,10.90
2023-03-21T22:36:12.296Z,10.90
2023-03-21T22:39:00.668Z,10.80
2023-03-21T22:41:48.144Z,10.70
2023-03-21T22:44:36.220Z,10.70
2023-03-21T22:47:23.525Z,9.60
2023-03-21T22:50:13.190Z,10.60
2023-03-21T22:53:01.085Z,10.50
2023-03-21T22:55:51.239Z,13.00
2023-03-21T22:58:38.741Z,10.20
2023-03-21T23:01:26.853Z,10.50
2023-03-21T23:04:14.209Z,9.90
2023-03-21T23:07:03.494Z,9.80
2023-03-21T23:09:51.977Z,9.70
2023-03-21T23:12:39.535Z,9.50
2023-03-21T23:15:27.442Z,9.40
2023-03-21T23:18:14.946Z,9.50
2023-03-21T23:21:03.502Z,9.40
2023-03-21T23:23:53.862Z,10.70
2023-03-21T23:26:41.932Z,9.20
2023-03-21T23:29:29.436Z,9.20
2023-03-21T23:32:17.348Z,9.20
2023-03-21T23:35:06.083Z,9.10
2023-03-21T23:37:53.427Z,9.10
2023-03-21T23:40:42.448Z,9.10
2023-03-21T23:43:30.813Z,9.00
2023-03-21T23:46:19.740Z,9.10
2023-03-21T23:49:07.910Z,10.10
2023-03-21T23:51:55.282Z,9.00
2023-03-21T23:54:42.712Z,9.00
2023-03-21T23:57:32.010Z,9.00
